x

8454000 - Providence, Ri (foxr1) Weather Station

5:30 - Thu 29th Sep 2016 All times are EDT. -4 hours from GMT.

  • Wind
    14mph, 22mph gusts
  • Sea Temp 67°f
  • Luft Temp 58°f
  • Sea Pressure 1030.3mb
  • 8454000 - Providence, Ri
  • 8454000 - Providence, Ri

More Historic Weather Station data

Upgrade to MSW Pro to gain access to the past 30 days of data for over 8000 Wavebouys and Weather Stations around the globe.

Join Pro

Comparision Forecast

View Surf forecast
   
Do 09/29 5:30 14 22 mph 1030.3mb 67f 58f
5:24 13 21 mph 1030.4mb 67f 58f
5:18 14 20 mph 1030.3mb 67f 59f
5:12 15 20 mph 1030.2mb 68f 59f
5:06 14 20 mph 1030.2mb 68f 58f
5:00 13 20 mph 1030.3mb 68f 58f
4:54 13 17 mph 1030.4mb 68f 59f
4:48 13 18 mph 1030.5mb 68f 59f
4:42 14 22 mph 1030.5mb 68f 58f
4:36 11 18 mph 1030.5mb 68f 58f
4:30 13 17 mph 1030.4mb 68f 59f
4:24 13 17 mph 1030.4mb 68f 59f
4:18 8 17 mph 1030.2mb 68f 59f
4:12 11 24 mph 1030.2mb 68f 59f
4:06 11 18 mph 1030.1mb 67f 59f
4:00 16 20 mph 1030.3mb 67f 59f
3:54 10 18 mph 1030.4mb 67f 59f
3:48 10 18 mph 1030.3mb 67f 59f
3:42 13 20 mph 1030.3mb 67f 59f
3:36 11 20 mph 1030.4mb 67f 59f
3:30 11 16 mph 1030.4mb 67f 59f
3:24 13 17 mph 1030.3mb 67f 59f
3:18 11 16 mph 1030.4mb 67f 59f
3:12 11 18 mph 1030.3mb 67f 59f
3:06 10 17 mph 1030.5mb 67f 59f
3:00 11 17 mph 1030.6mb 67f 59f
2:54 9 18 mph 1030.5mb 67f 59f
2:48 15 22 mph 1030.6mb 67f 59f
2:42 11 20 mph 1030.6mb 66f 59f
2:36 14 18 mph 1030.5mb 66f 59f
2:30 8 17 mph 1030.5mb 66f 59f
2:24 11 18 mph 1030.5mb 66f 59f
2:18 13 21 mph 1030.4mb 66f 59f
2:12 13 21 mph 1030.3mb 66f 59f
2:06 10 20 mph 1030.2mb 66f 59f
2:00 14 20 mph 1030.2mb 66f 59f
1:54 15 22 mph 1030.3mb 66f 59f
1:48 13 20 mph 1030.4mb 66f 59f
1:42 13 16 mph 1030.4mb 66f 59f
1:36 15 20 mph 1030.4mb 66f 59f
1:30 14 22 mph 1030.4mb 66f 59f
1:24 13 21 mph 1030.4mb 66f 60f
1:18 15 22 mph 1030.4mb 66f 59f
1:12 14 22 mph 1030.4mb 66f 59f
1:06 13 18 mph 1030.5mb 66f 60f
1:00 15 21 mph 1030.7mb 66f 59f
12:54 14 20 mph 1030.6mb 66f 59f
12:48 15 21 mph 1030.6mb 66f 59f
12:42 13 23 mph 1030.8mb 66f 59f
12:36 14 18 mph 1030.8mb 66f 59f
12:30 15 21 mph 1030.7mb 66f 59f
12:24 14 21 mph 1030.6mb 66f 59f
12:18 14 21 mph 1030.8mb 66f 59f
12:12 15 21 mph 1030.6mb 66f 59f
12:06 11 21 mph 1030.6mb 66f 59f
12:00 13 21 mph 1030.6mb 66f 59f
11:54 15 25 mph 1030.6mb 67f 59f
11:48 13 18 mph 1030.5mb 67f 59f
11:42 13 20 mph 1030.6mb 67f 59f
11:36 13 21 mph 1030.6mb 67f 59f
11:30 14 20 mph 1030.6mb 67f 59f
11:24 13 20 mph 1030.4mb 67f 59f
11:18 14 24 mph 1030.2mb 67f 59f
11:12 8 20 mph 1030.2mb 67f 59f
11:06 13 18 mph 1030mb 67f 59f
11:00 13 22 mph 1030mb 67f 59f
10:54 10 17 mph 1030mb 67f 59f
10:48 10 17 mph 1029.9mb 67f 59f
10:42 13 22 mph 1029.9mb 67f 59f
10:36 10 20 mph 1029.8mb 67f 59f
10:30 11 21 mph 1029.7mb 67f 59f
10:24 14 23 mph 1029.7mb 67f 58f
10:18 16 26 mph 1029.6mb 67f 59f
10:12 11 20 mph 1029.7mb 67f 59f
10:06 14 20 mph 1029.7mb 67f 58f
10:00 11 17 mph 1029.9mb 67f 58f
9:54 15 22 mph 1029.8mb 67f 58f
9:48 10 17 mph 1029.7mb 68f 58f
9:42 13 18 mph 1029.7mb 68f 58f
9:36 10 18 mph 1029.7mb 68f 58f
9:30 13 22 mph 1029.8mb 68f 58f
9:24 15 25 mph 1029.7mb 68f 58f
9:18 16 25 mph 1029.7mb 68f 58f
9:12 15 24 mph 1029.6mb 68f 58f
9:06 9 18 mph 1029.6mb 68f 58f
9:00 11 15 mph 1029.4mb 68f 58f
8:54 13 18 mph 1029.3mb 68f 58f
8:48 10 18 mph 1029.2mb 68f 58f
8:42 13 18 mph 1029mb 68f 58f
8:36 14 22 mph 1028.9mb 68f 58f
8:30 13 21 mph 1028.9mb 68f 59f
8:24 13 20 mph 1028.8mb 68f 58f
8:18 9 15 mph 1028.9mb 68f 59f
8:12 8 16 mph 1029mb 68f 58f
8:06 10 17 mph 1028.8mb 68f 58f
8:00 10 16 mph 1028.7mb 68f 58f
7:54 14 21 mph 1028.7mb 68f 58f
7:48 13 21 mph 1028.6mb 68f 58f
7:42 11 18 mph 1028.6mb 68f 58f
7:36 10 21 mph 1028.5mb 68f 58f
7:30 10 18 mph 1028.4mb 68f 58f
7:24 9 18 mph 1028.3mb 68f 58f
7:18 11 16 mph 1028.3mb 68f 58f
7:12 10 16 mph 1028.2mb 68f 58f
7:06 9 14 mph 1028.2mb 68f 58f
7:00 9 18 mph 1028.3mb 68f 58f
6:54 8 16 mph 1028.1mb 68f 58f
6:48 9 17 mph 1027.9mb 68f 58f
6:42 10 15 mph 1027.8mb 68f 58f
6:36 9 18 mph 1027.7mb 68f 58f
6:30 9 17 mph 1027.6mb 68f 58f
6:24 8 16 mph 1027.7mb 68f 58f
6:18 10 16 mph 1027.6mb 68f 58f
6:12 10 17 mph 1027.6mb 68f 58f
6:06 10 18 mph 1027.6mb 68f 58f
6:00 9 16 mph 1027.4mb 68f 59f
5:54 14 22 mph 1027.4mb 68f 58f
5:48 11 17 mph 1027.4mb 68f 59f
5:42 8 14 mph 1027.4mb 68f 59f
5:36 10 16 mph 1027.4mb 68f 58f
5:30 6 15 mph 1027.3mb 68f 59f
5:24 7 15 mph 1027.3mb 68f 59f
5:18 9 17 mph 1027.1mb 68f 59f
5:12 10 17 mph 1026.9mb 68f 59f
5:06 14 22 mph 1026.9mb 68f 59f
5:00 14 21 mph 1026.8mb 68f 59f
4:54 9 15 mph 1026.7mb 68f 59f
4:48 9 14 mph 1026.8mb 68f 59f
4:42 8 17 mph 1026.8mb 68f 59f
4:36 10 18 mph 1026.8mb 68f 59f
4:30 8 13 mph 1026.6mb 68f 59f
4:24 8 16 mph 1026.6mb 68f 59f
4:18 9 18 mph 1026.6mb 68f 59f
4:12 9 15 mph 1026.5mb 68f 59f
4:06 9 16 mph 1026.5mb 68f 59f
4:00 8 17 mph 1026.4mb 68f 59f
3:54 10 16 mph 1026.3mb 68f 59f
3:48 10 14 mph 1026.2mb 68f 59f
3:42 8 14 mph 1026.2mb 68f 59f
3:36 10 16 mph 1026.1mb 68f 59f
3:30 14 20 mph 1026.2mb 68f 59f
3:24 10 18 mph 1026.2mb 68f 60f
3:18 9 18 mph 1026.2mb 68f 60f
3:12 9 16 mph 1026.2mb 68f 60f
3:06 9 16 mph 1026.1mb 68f 60f
3:00 10 15 mph 1025.9mb 68f 60f
2:54 10 16 mph 1025.8mb 68f 60f
2:48 10 17 mph 1025.7mb - -
2:42 10 17 mph 1025.6mb - -
2:36 10 17 mph 1025.6mb - -
2:30 10 17 mph 1025.6mb 68f 60f
2:24 10 15 mph 1025.5mb 68f 60f
2:18 14 21 mph 1025.6mb 67f 60f
2:12 10 21 mph 1025.6mb 67f 60f
2:06 10 17 mph 1025.5mb 67f 60f
2:00 10 18 mph 1025.4mb 67f 60f
1:54 11 21 mph 1025.4mb 67f 60f
1:48 9 18 mph 1025.5mb 67f -
1:42 11 16 mph 1025.5mb 67f -
1:36 9 17 mph 1025.7mb 67f -
1:30 10 18 mph 1025.8mb 67f 60f
1:24 9 15 mph 1025.8mb 67f 60f
1:18 9 16 mph 1025.8mb 67f 60f
1:12 10 18 mph 1025.7mb 67f 60f
1:06 9 15 mph 1025.7mb 67f 60f
1:00 10 18 mph 1025.7mb 67f 60f
12:54 9 15 mph 1025.7mb 67f 60f
12:48 11 17 mph 1025.7mb 67f 60f
12:42 14 20 mph 1025.7mb 67f 60f
12:36 10 16 mph 1025.7mb 67f 60f
12:30 13 20 mph 1025.7mb 67f 60f
12:24 10 15 mph 1025.6mb 67f 60f
12:18 9 17 mph 1025.5mb 67f 60f
12:12 10 17 mph 1025.5mb 67f 60f
12:06 10 20 mph 1025.5mb 67f 60f
12:00 9 17 mph 1025.4mb 67f 60f
Mi 09/28 11:54 13 17 mph 1025.4mb 67f 60f
11:48 10 17 mph 1025.5mb 67f 60f
11:42 13 17 mph 1025.5mb 67f 60f
11:36 9 17 mph 1025.5mb 67f 60f
11:30 11 18 mph 1025.7mb 67f 60f
11:24 9 15 mph 1025.8mb 67f 60f
11:18 8 16 mph 1025.7mb 68f 60f
11:12 9 18 mph 1025.7mb 68f 60f
11:06 10 16 mph 1025.7mb 68f 60f
11:00 10 17 mph 1025.6mb 68f 59f
10:54 11 20 mph 1025.6mb 68f 59f
10:48 11 18 mph 1025.5mb 68f 59f
10:42 8 14 mph 1025.5mb 68f 59f
10:36 8 15 mph 1025.5mb 68f 59f
10:30 10 16 mph 1025.4mb 68f 59f
10:24 11 17 mph 1025.2mb 68f 59f
10:18 14 22 mph 1025.1mb 68f 59f
10:12 10 16 mph 1025.1mb 68f 59f
10:06 8 16 mph 1025mb 68f 59f
10:00 7 15 mph 1025.1mb 68f 59f
9:54 9 14 mph 1025.1mb 68f 59f
9:48 10 16 mph 1025mb 68f 59f
9:42 9 17 mph 1024.9mb 68f 59f
9:36 9 15 mph 1024.7mb 68f 58f
9:30 9 16 mph 1024.7mb 68f 58f
9:24 8 15 mph 1024.7mb 68f 58f
9:18 10 16 mph 1024.6mb 68f 58f
9:12 11 18 mph 1024.6mb 68f 58f
9:06 9 15 mph 1024.5mb 68f 58f
9:00 8 15 mph 1024.4mb 69f 58f
8:54 8 16 mph 1024.4mb 69f 58f
8:48 8 15 mph 1024.3mb 69f 58f
8:42 10 16 mph 1024.4mb 69f 58f
8:36 10 16 mph 1024.3mb 69f 58f
8:30 9 18 mph - 69f 58f
8:24 9 16 mph - 69f 58f
8:18 10 15 mph 1024.1mb 69f 57f
8:12 10 15 mph 1024.1mb 69f 57f
8:06 8 17 mph 1024mb 69f 57f
8:00 10 17 mph 1023.8mb 69f 57f
7:54 10 17 mph 1023.8mb 69f 57f
7:48 10 16 mph 1023.7mb 69f -
7:42 8 15 mph 1023.7mb 69f -
7:36 8 15 mph 1023.7mb 69f -
7:30 9 14 mph 1023.6mb 69f 57f
7:24 9 14 mph 1023.6mb 69f 57f
7:18 9 15 mph 1023.5mb 69f 57f
7:12 10 17 mph 1023.4mb 69f 57f
7:06 9 15 mph 1023.4mb 69f 57f
7:00 10 20 mph 1023.4mb 69f 57f
6:54 13 18 mph 1023.3mb 69f 57f
6:48 13 17 mph 1023.3mb 69f -
6:42 11 17 mph 1023.3mb 69f -
6:36 10 17 mph 1023.3mb 69f -
6:30 13 18 mph 1023.2mb 69f 57f
6:24 11 18 mph 1023.1mb 69f 57f
6:18 13 21 mph 1023.1mb 69f 57f
6:12 9 17 mph 1023mb 69f 57f
6:06 11 20 mph 1023.1mb 69f 57f
6:00 10 18 mph 1023.2mb 69f 57f
5:54 10 21 mph 1023.3mb 69f 57f
5:48 9 17 mph 1023.3mb 69f 57f
5:42 9 17 mph 1023.3mb 69f 57f
5:36 10 21 mph 1023.2mb 69f 58f
5:30 10 18 mph 1023.2mb 69f 58f
5:24 11 20 mph 1023.1mb 69f 57f
5:18 9 20 mph 1023.3mb 69f 57f
5:12 11 18 mph 1023.2mb 69f 57f
5:06 9 17 mph 1023mb 69f 58f
5:00 10 17 mph 1023.1mb 69f 57f
4:54 8 17 mph 1022.9mb 69f 58f
4:48 8 20 mph 1022.7mb 69f 58f
4:42 8 20 mph 1022.5mb 69f 58f
4:36 11 20 mph 1022.7mb 69f 57f
4:30 10 18 mph 1022.7mb 69f 57f
4:24 10 20 mph 1022.8mb 69f 57f
4:18 10 18 mph 1022.9mb 69f 57f
4:12 10 17 mph 1023mb 69f 57f
4:06 11 20 mph 1023mb 69f 57f
4:00 13 25 mph 1022.9mb 69f 57f
3:54 13 21 mph 1022.8mb 69f 57f
3:48 13 21 mph 1022.8mb 69f 57f
3:42 16 21 mph 1022.7mb 69f 57f
3:36 11 18 mph 1022.7mb 69f 57f
3:30 10 21 mph 1022.7mb 69f 57f
3:24 13 21 mph 1022.6mb 69f 58f
3:18 10 17 mph 1022.6mb 69f 58f
3:12 10 17 mph 1022.6mb 69f 58f
3:06 13 20 mph 1022.5mb 69f 58f
3:00 10 21 mph 1022.5mb 69f 58f
2:54 10 21 mph 1022.3mb 69f 58f
2:48 11 21 mph 1022.3mb 69f 58f
2:42 10 21 mph 1022.2mb 69f 59f
2:36 11 20 mph 1022.1mb 69f 59f
2:30 10 21 mph 1022.1mb 69f 59f
2:24 16 22 mph 1022mb 69f 59f
2:18 14 25 mph 1021.9mb 69f 59f
2:12 15 23 mph 1021.8mb 68f 59f
2:06 13 23 mph 1021.8mb 68f 59f
2:00 13 20 mph 1021.7mb 68f 60f
1:54 13 22 mph 1021.8mb 68f 60f
1:48 11 21 mph 1021.7mb 68f 60f
1:42 11 20 mph 1021.7mb 68f 60f
1:36 14 20 mph 1021.8mb 68f 60f
1:30 11 20 mph 1021.9mb 68f 60f
1:24 9 15 mph 1021.9mb 68f 60f
1:18 11 20 mph 1022mb 68f 60f
1:12 10 17 mph 1022mb 68f 60f
1:06 13 21 mph 1021.9mb 68f 60f
1:00 13 21 mph 1021.9mb 68f 60f
12:54 11 17 mph 1021.8mb 68f 60f
12:48 11 18 mph 1021.8mb 68f 61f
12:42 10 17 mph 1021.7mb 68f 61f
12:36 9 15 mph 1021.7mb 68f 61f
12:30 13 20 mph 1021.7mb 68f 61f
12:24 13 20 mph 1021.6mb 68f 61f
12:18 11 20 mph 1021.6mb 68f 61f
12:12 9 14 mph 1021.5mb 68f 61f
12:06 9 20 mph 1021.5mb 68f 61f
12:00 13 20 mph 1021.6mb 68f 61f
11:54 11 16 mph 1021.5mb 68f 61f
11:48 11 17 mph 1021.4mb 68f 61f
11:42 13 22 mph 1021.4mb 68f 61f
11:36 10 22 mph 1021.3mb 68f 61f
11:30 13 20 mph 1021.3mb 68f 61f
11:24 10 16 mph 1021.3mb 68f 61f
11:18 11 18 mph 1021.4mb 68f 61f
11:12 9 20 mph 1021.3mb 68f 61f
11:06 11 16 mph 1021.3mb 68f 61f
11:00 14 20 mph 1021.4mb 68f 61f
10:54 13 17 mph 1021.3mb 68f 61f
10:48 10 17 mph 1021.3mb 69f 61f
10:42 10 17 mph 1021.4mb 69f 60f
10:36 13 20 mph 1021.4mb 69f 60f
10:30 10 18 mph 1021.5mb 69f 60f
10:24 11 16 mph 1021.5mb 69f 60f
10:18 9 15 mph 1021.5mb 69f 60f
10:12 10 15 mph 1021.4mb 69f 60f
10:06 11 20 mph 1021.5mb 69f 60f
10:00 11 16 mph 1021.6mb 69f 60f
9:54 10 20 mph 1021.5mb 69f 60f
9:48 10 18 mph 1021.4mb 69f 60f
9:42 11 24 mph 1021.4mb 69f 60f
9:36 13 17 mph 1021.3mb 69f 60f
9:30 11 16 mph 1021.2mb 69f 61f
9:24 6 17 mph 1021.3mb 69f 61f
9:18 11 17 mph 1021.3mb 69f 61f
9:12 11 17 mph 1021.2mb 69f 61f
9:06 8 13 mph 1021.2mb 69f 61f
9:00 8 11 mph 1021mb 69f 61f
8:54 9 14 mph 1020.8mb 69f 61f
8:48 8 13 mph 1020.8mb 69f 61f
8:42 10 16 mph 1020.7mb 69f 60f
8:36 8 15 mph 1020.5mb 69f 60f
8:30 8 14 mph 1020.5mb 69f 60f
8:24 7 14 mph 1020.5mb 69f 60f
8:18 8 13 mph 1020.4mb 69f 61f
8:12 7 13 mph 1020.2mb 69f 60f
8:06 9 14 mph 1020.1mb 69f 60f
8:00 11 16 mph 1020mb 69f 60f
7:54 10 14 mph 1020mb 69f 60f
7:48 8 16 mph 1019.9mb 69f 61f
7:42 8 16 mph 1019.9mb 69f 61f
7:36 9 18 mph 1019.7mb 69f 61f
7:30 9 15 mph 1019.6mb 70f 61f
7:24 8 15 mph 1019.5mb 70f 61f
7:18 8 15 mph 1019.4mb 70f 61f
7:12 7 13 mph 1019.4mb 70f 61f
7:06 7 11 mph 1019.4mb 70f 61f
7:00 8 13 mph 1019.4mb 70f 61f
6:54 8 16 mph 1019.3mb 70f 61f
6:48 9 14 mph 1019.1mb 70f 61f
6:42 7 13 mph 1019mb 70f 61f
6:36 7 8 mph 1019mb 70f 61f
6:30 8 11 mph 1018.8mb 70f 61f
6:24 7 11 mph 1018.6mb 70f 61f
6:18 6 14 mph 1018.5mb 70f 62f
6:12 6 13 mph 1018.5mb 70f 62f
6:06 7 10 mph 1018.5mb 70f 61f
6:00 6 10 mph 1018.4mb 70f 62f
5:54 7 10 mph 1018.3mb 70f 61f
5:48 6 10 mph 1018.4mb 70f 62f
5:42 7 10 mph 1018.3mb 70f 61f
5:36 5 11 mph 1018.3mb 70f 62f
5:30 8 13 mph 1018.2mb 70f 62f
5:24 8 13 mph 1018.1mb 70f 62f
5:18 7 13 mph 1018mb 70f 62f
5:12 6 9 mph 1017.9mb 70f 62f
5:06 6 10 mph 1017.8mb 70f 62f
5:00 5 8 mph 1017.8mb 70f 61f
4:54 7 11 mph 1017.8mb 70f 61f
4:48 7 11 mph 1017.7mb 70f 61f
4:42 7 11 mph 1017.7mb 70f 61f
4:36 7 10 mph 1017.6mb 70f 61f
4:30 6 9 mph 1017.6mb 70f 61f
4:24 6 9 mph 1017.6mb 70f 61f
4:18 7 11 mph 1017.3mb 70f 61f
4:12 8 13 mph 1017.2mb 70f 61f
4:06 6 10 mph 1017.2mb 70f 61f
4:00 5 8 mph 1017.1mb 70f 61f
3:54 6 10 mph 1017.1mb 70f 61f
3:48 5 7 mph 1017mb 70f 61f
3:42 5 9 mph 1016.9mb 70f 61f
3:36 6 10 mph 1016.7mb 70f 61f
3:30 6 10 mph 1016.7mb 70f 61f
3:24 6 8 mph 1016.8mb 70f 61f
3:18 6 8 mph 1016.7mb 70f 61f
3:12 6 10 mph 1016.7mb 70f 61f
3:06 5 8 mph 1016.7mb 70f 61f
3:00 5 7 mph 1016.6mb 70f 61f
2:54 5 7 mph 1016.5mb 70f 61f
2:48 2 6 mph 1016.5mb 70f 61f
2:42 2 5 mph 1016.6mb 70f 61f
2:36 3 8 mph 1016.4mb 70f 61f
2:30 6 8 mph 1016.2mb 70f 61f
2:24 3 6 mph 1016.4mb 70f 61f
2:18 3 6 mph 1016.5mb 70f 61f
2:12 3 8 mph 1016.4mb 70f 61f
2:06 5 7 mph 1016.4mb 70f 61f
2:00 3 7 mph 1016.2mb 70f 61f
1:54 5 8 mph 1016.1mb 70f 61f
1:48 3 6 mph 1016.1mb 70f -
1:42 3 6 mph 1016.2mb 70f -
1:36 3 5 mph 1016.2mb 70f -
1:30 5 6 mph 1016.1mb 70f 62f
1:24 3 6 mph 1016mb 70f 62f
1:18 3 5 mph 1015.9mb 70f 61f
1:12 3 5 mph 1015.8mb 70f 61f
1:06 3 5 mph 1015.8mb 70f 62f
1:00 2 6 mph 1015.7mb 70f 61f
12:54 2 6 mph 1015.7mb 70f 61f
12:48 3 5 mph 1015.8mb 70f 61f
12:42 2 5 mph 1015.8mb 70f 61f
12:36 3 5 mph 1015.6mb 70f 61f
12:30 3 6 mph 1015.6mb 70f 61f
12:24 5 8 mph 1015.4mb 70f 61f
12:18 5 6 mph 1015.3mb 70f 62f
12:12 5 6 mph 1015.3mb 70f 62f
12:06 3 6 mph 1015mb 70f 63f
12:00 5 7 mph 1015mb 70f 63f
Di 09/27 11:54 3 5 mph 1015.1mb 70f 63f
11:48 2 3 mph 1015.1mb 70f 63f
11:42  -  2 mph 1015.1mb 70f 63f
11:36 1 3 mph 1015mb 70f 63f
11:30 1 2 mph 1014.9mb 70f 64f
11:24 1 5 mph 1014.9mb 70f 64f
11:18 2 5 mph 1014.9mb 70f 64f
11:12 2 3 mph 1014.8mb 70f 64f
11:06  -  3 mph 1014.8mb 70f 64f
11:00 2 3 mph 1014.8mb 70f 64f
10:54  -  3 mph 1014.9mb 70f 64f
10:48 2 3 mph 1014.8mb 70f 64f
10:42 3
mph
1014.8mb 70f 64f
10:36 3
mph
1014.6mb 70f 64f
10:30 2
mph
1014.5mb 70f 64f
10:24 2 3 mph 1014.3mb 70f 64f
10:18 2 3 mph 1014.3mb 70f 64f
10:12 3
mph
1014.2mb 70f 64f
10:06 3
mph
1014.2mb 70f 64f
10:00 2 3 mph 1014.2mb 70f 65f
9:54 2 3 mph 1014.1mb 70f 65f
9:48 2 3 mph 1014.1mb 70f 65f
9:42 3
mph
1014mb 70f 65f
9:36 3
mph
1013.8mb 70f 65f
9:30 2
mph
1013.8mb 70f 65f
9:24 2
mph
1013.7mb 70f 65f
9:18 2
mph
- 70f 65f
9:12 2
mph
- 70f 65f
9:06 1 3 mph - 70f 65f
9:00 2 3 mph 1013.6mb 70f 65f
8:54 2
mph
1013.6mb 69f 65f
8:48 2 3 mph 1013.6mb 69f 66f
8:42 2
mph
1013.6mb 69f 65f
8:36 2 5 mph 1013.5mb 69f 65f
8:30 2 3 mph 1013.5mb 69f 66f
8:24 2 5 mph 1013.4mb 69f 66f
8:18 3 5 mph 1013.4mb 69f 66f
8:12 3 6 mph 1013.3mb 69f 66f
8:06 3 5 mph 1013.2mb 69f 66f
8:00 2 3 mph 1013.1mb 69f 66f
7:54 3 5 mph 1013mb 69f 66f
7:48 3 6 mph 1013mb 69f -
7:42 6 7 mph 1012.9mb 69f -
7:36 5 6 mph 1012.8mb 69f -
7:30 5 7 mph 1012.7mb 69f 67f
7:24 5 6 mph 1012.6mb 69f 67f
7:18 6 7 mph 1012.6mb 69f 67f
7:12 7 8 mph 1012.5mb 69f 67f
7:06 7 10 mph 1012.4mb 69f 67f
7:00 8 9 mph 1012.5mb 69f 67f
6:54 8 10 mph 1012.5mb 69f 67f
6:48 8 11 mph 1012.4mb 69f 68f
6:42 8 11 mph 1012.4mb 69f 68f
6:36 7 10 mph 1012.2mb 69f 68f
6:30 8 9 mph 1012.1mb 69f 68f
6:24 9 11 mph 1012mb 69f 69f
6:18 7 10 mph 1011.9mb 69f 69f
6:12 6 11 mph 1011.9mb 69f 69f
6:06 10 11 mph 1011.8mb 69f 69f
6:00 7 13 mph 1011.7mb 69f 69f
5:54 9 13 mph 1011.7mb 69f 69f
5:48 8 10 mph - 69f 69f
5:42 10 11 mph - 69f 69f
5:36 10 14 mph - 69f 69f
5:30 10 13 mph 1011.6mb 69f 69f
5:24 8 9 mph 1011.5mb 69f 69f
5:18 8 9 mph 1011.4mb 69f 69f
5:12 8 9 mph 1011.3mb 69f 69f
5:06 7 8 mph 1011.4mb 69f 69f
5:00 7 9 mph 1011.4mb 69f 69f
4:54 7 10 mph 1011.4mb 69f 69f
4:48 6 10 mph 1011.4mb 69f 69f
4:42 8 10 mph 1011.3mb 69f 69f
4:36 8 9 mph 1011.2mb 69f 69f
4:30 8 10 mph 1011.2mb 69f 69f
4:24 8 10 mph 1011.2mb 69f 69f
4:18 10 11 mph 1011.2mb 69f 69f
4:12 9 10 mph 1011.2mb 69f 69f
4:06 8 10 mph 1011.3mb 69f 70f
4:00 8 9 mph 1011.3mb 69f 70f
3:54 8
mph
1011.3mb 69f 70f
3:48 7 8 mph 1011.2mb 69f 70f
3:42 7 9 mph 1011.2mb 69f 70f
3:36 7 8 mph 1011.2mb 69f 70f
3:30 7 8 mph 1011.2mb 69f 70f
3:24 6 7 mph 1011.2mb 69f 69f
3:18 6 7 mph 1011.2mb 69f 70f
3:12 6 7 mph 1011.3mb 69f 69f
3:06 6 7 mph 1011.2mb 69f 69f
3:00 6 8 mph 1011.1mb 69f 69f
2:54 7 8 mph 1011.2mb 69f 69f
2:48 7 9 mph 1011.2mb 69f 69f
2:42 8 9 mph 1011.2mb 69f 69f
2:36 7 9 mph 1011.2mb 69f 69f
2:30 8 9 mph 1011.2mb 69f 69f
2:24 7 9 mph 1011.2mb 69f 69f
2:18 7 8 mph 1011.2mb 69f 69f
2:12 5 7 mph 1011.2mb 69f 70f
2:06 2 5 mph 1011.2mb 69f 71f
2:00 2 5 mph 1011.3mb 69f 71f
1:54 2 5 mph 1011.3mb 69f 71f
1:48 3 5 mph 1011.3mb 69f 71f
1:42 2 5 mph 1011.3mb 69f 71f
1:36 1 5 mph 1011.3mb 69f 71f
1:30 6 8 mph 1011.3mb 69f 71f
1:24 2 6 mph 1011.3mb 69f 70f
1:18 2 5 mph 1011.4mb 69f 70f
1:12 5 6 mph 1011.4mb 69f 70f
1:06 2 5 mph 1011.5mb 69f 70f
1:00 2 7 mph 1011.4mb 69f 70f
12:54 3 7 mph 1011.5mb 69f 70f
12:48 2 5 mph 1011.5mb 69f 70f
12:42 3 7 mph 1011.5mb 69f 70f
12:36 3 7 mph 1011.5mb 69f 69f
12:30 5 7 mph 1011.6mb 69f 69f
12:24 3 6 mph 1011.6mb 69f 69f
12:18 6 8 mph 1011.5mb 69f 69f
12:12 6 8 mph 1011.6mb 69f 69f
12:06 5 7 mph 1011.6mb 69f 69f
12:00 3 7 mph 1011.6mb 69f 69f
11:54 5 8 mph 1011.5mb 69f 69f
11:48 5 8 mph 1011.6mb 69f 68f
11:42 7 9 mph 1011.6mb 69f 68f
11:36 6 9 mph 1011.6mb 69f 68f
11:30 7 9 mph 1011.6mb 69f 67f
11:24 6 11 mph 1011.6mb 69f 67f
11:18 7 10 mph 1011.6mb 69f 67f
11:12 7 9 mph 1011.6mb 69f 67f
11:06 8 11 mph 1011.6mb 69f 66f
11:00 5 8 mph 1011.7mb 69f 66f
10:54 5 7 mph 1011.7mb 69f 66f
10:48 5 7 mph 1011.7mb 69f 66f
10:42 7 8 mph 1011.8mb 69f 66f
10:36 3 6 mph 1011.7mb 69f 65f
10:30 3 6 mph 1011.6mb 69f 66f
10:24 5 7 mph 1011.5mb 69f 65f
10:18 6 8 mph 1011.5mb 69f 65f
10:12 6 8 mph 1011.6mb 69f 65f
10:06 3 5 mph 1011.7mb 69f 65f
10:00 3 6 mph 1011.7mb 69f 65f
9:54 3 7 mph 1011.7mb 69f 65f
9:48 5 9 mph 1011.5mb 69f 65f
9:42 5 9 mph 1011.5mb 69f 65f
9:36 5 8 mph 1011.5mb 69f 65f
9:30 7 8 mph 1011.3mb 69f 65f
9:24 3 8 mph 1011.3mb 69f 65f
9:18 7 11 mph 1011.4mb 69f 65f
9:12 7 11 mph 1011.4mb 69f 65f
9:06 7 10 mph 1011.3mb 69f 65f
9:00 5 9 mph 1011.2mb 69f 65f
8:54 7 9 mph 1011mb 69f 65f
8:48 5 6 mph 1011mb 69f 65f
8:42 5 7 mph 1011mb 69f 65f
8:36 6 8 mph 1011mb 69f 65f
8:30 6 8 mph 1011mb 69f 65f
8:24 6 8 mph 1011mb 69f 66f
8:18 3 7 mph 1010.9mb 69f 66f
8:12 5 7 mph 1010.9mb 69f 65f
8:06 6 9 mph 1010.9mb 69f 66f
8:00 2 5 mph 1010.8mb 69f 65f
7:54 3 5 mph 1010.6mb 69f 65f
7:48 5
mph
1010.7mb 69f 65f
7:42 2 7 mph 1010.8mb 69f 65f
7:36 5 6 mph 1010.8mb 69f 65f
7:30 3 6 mph 1010.9mb 69f 65f
7:24 5 7 mph 1010.9mb 69f 65f
7:18 5 7 mph 1010.9mb 69f 65f
7:12 7 9 mph 1011mb 69f 65f
7:06 6 8 mph 1011.1mb 69f 65f
7:00 6 8 mph 1011.1mb 69f 65f
6:54 6 7 mph 1011.1mb 69f 65f
6:48 6 8 mph 1011.2mb 69f 65f
6:42 6 8 mph 1011.3mb 69f 65f
6:36 7 8 mph 1011.3mb 69f 65f
6:30 6 7 mph 1011.4mb 69f 65f
6:24 5 7 mph 1011.5mb 69f 65f
6:18 6 7 mph 1011.6mb 69f 65f
6:12 5 7 mph 1011.6mb 69f 65f
6:06 5 7 mph 1011.7mb 69f 65f
6:00 6 9 mph 1011.7mb 69f 65f
5:54 8 10 mph 1011.7mb 69f 65f
5:48 7 10 mph 1011.7mb 69f 65f
5:42 7 10 mph 1011.7mb 69f 66f
5:36 8 14 mph 1011.7mb 69f 66f
5:30 6 11 mph 1011.7mb 69f 67f
5:24 9 14 mph 1011.6mb 69f 67f
5:18 8 13 mph 1011.6mb 69f 67f
5:12 8 10 mph 1011.7mb 69f 67f
5:06 6 13 mph 1011.7mb 69f 67f
5:00 8 10 mph 1011.8mb 69f 67f
4:54 7 9 mph 1011.9mb 69f 67f
4:48 5 9 mph 1011.9mb 69f 67f
4:42 6 13 mph 1012mb 69f 67f
4:36 8 11 mph 1012mb 69f 67f
4:30 7 10 mph 1012.1mb 69f 67f
4:24 8 13 mph 1012.1mb 69f 67f
4:18 7 11 mph 1012.2mb 69f 66f
4:12 7 11 mph 1012.3mb 69f 66f
4:06 8 11 mph 1012.2mb 69f 66f
4:00 8 11 mph 1012.2mb 69f 66f
3:54 8 10 mph 1012.3mb 69f 66f
3:48 9 11 mph 1012.5mb 69f 66f
3:42 8 10 mph 1012.6mb 69f 65f
3:36 9 10 mph 1012.7mb 69f 65f
3:30 7 10 mph 1012.9mb 69f 65f
3:24 7 9 mph 1012.9mb 69f 65f
3:18 7 10 mph 1013mb 69f 65f
3:12 7 9 mph 1013mb 69f 65f
3:06 6 8 mph 1013.1mb 69f 65f
3:00 5 8 mph 1013.3mb 69f 65f
2:54 5 6 mph 1013.5mb 69f 64f
2:48 5 6 mph 1013.6mb 69f -
2:42 5 6 mph 1013.7mb 69f -
2:36 5 6 mph 1013.8mb 69f -
2:30 3 7 mph 1013.9mb 69f 64f
2:24 3 6 mph 1013.9mb 69f 64f
2:18 5 7 mph 1014mb 69f 64f
2:12 3 6 mph 1014.1mb 69f 64f
2:06 3 6 mph 1014.2mb 69f 64f
2:00 5 8 mph 1014.2mb 69f 64f
1:54 6 9 mph 1014.2mb 69f 64f
1:48 7 9 mph 1014.1mb 69f -
1:42 7 8 mph 1014.2mb 69f -
1:36 6 7 mph 1014.2mb 69f -
1:30 5 7 mph 1014.3mb 69f 63f
1:24 6 7 mph 1014.4mb 69f 63f
1:18 2 6 mph 1014.5mb 69f 63f
1:12 2 3 mph 1014.5mb 69f 63f
1:06 3 5 mph 1014.5mb 69f 63f
1:00 3 5 mph 1014.6mb 69f 63f
12:54 3 5 mph 1014.7mb 69f 63f
12:48 3 6 mph 1014.9mb 69f 63f
12:42 3 6 mph 1015mb 69f 63f
12:36 5 7 mph 1015.1mb 69f 63f
12:30 5 6 mph 1015.3mb 69f 63f
12:24 3 6 mph 1015.3mb 69f 62f
12:18 3 6 mph 1015.4mb 69f 62f
12:12 6 9 mph 1015.5mb 69f 62f
12:06 6 9 mph 1015.5mb 69f 62f
12:00 5 7 mph 1015.6mb 69f 62f
Mo 09/26 11:54 5 7 mph 1015.7mb 69f 61f
11:48 5 6 mph 1015.8mb 69f 61f
11:42 3 7 mph 1016.1mb 69f 61f
11:36 3 6 mph 1016.1mb 69f 60f
11:30 6 9 mph 1016.1mb 69f 60f
11:24 6 8 mph 1016.3mb 69f 60f
11:18 7 9 mph 1016.3mb 69f 60f
11:12 6 8 mph 1016.4mb 69f 60f
11:06 6 8 mph 1016.5mb 69f 60f
11:00 6 8 mph 1016.6mb 69f 60f
10:54 6 8 mph 1016.6mb 69f 60f
10:48 3 8 mph 1016.7mb 69f 60f
10:42 5 10 mph 1016.8mb 69f 60f
10:36 5 7 mph 1016.9mb 69f 59f
10:30 5 7 mph 1017mb 69f 59f
10:24 5 7 mph 1017.1mb 69f 59f
10:18 5 7 mph 1017.1mb 69f 59f
10:12 1 5 mph 1017.1mb 69f 59f
10:06 2 7 mph 1017.1mb 69f 59f
10:00 5 6 mph 1017.2mb 69f 59f
9:54 3 7 mph 1017.3mb 69f 59f
9:48 5 7 mph 1017.4mb 69f 59f
9:42 5 6 mph 1017.4mb 69f 59f
9:36 3 6 mph 1017.5mb 69f 59f
9:30 6 7 mph 1017.5mb 69f 59f
9:24 5 7 mph 1017.5mb 69f 60f
9:18  -  mph 1017.4mb 69f 60f
9:12  -  mph 1017.4mb 69f 60f
9:06  -  mph 1017.5mb 69f 60f
9:00 3 6 mph 1017.4mb 69f 60f
8:54 5 8 mph 1017.5mb 69f 60f
8:48 6 8 mph 1017.5mb 69f 60f
8:42 5 8 mph 1017.6mb 69f 60f
8:36 7 9 mph 1017.6mb 69f 60f
8:30 5 9 mph 1017.8mb 69f 60f
8:24 6 7 mph 1017.9mb 69f 60f
8:18  -  mph 1017.8mb 69f 60f
8:12  -  mph 1017.7mb 69f 60f
8:06  -  mph 1017.7mb 69f 61f
8:00 6 8 mph 1017.8mb 69f 61f
7:54 6 9 mph 1017.6mb 69f 61f
7:48 6 9 mph 1017.6mb 69f 61f
7:42 6 8 mph 1017.6mb 69f 61f
7:36 8 10 mph 1017.6mb 69f 61f
7:30 7 10 mph 1017.7mb 70f 61f
7:24 7 10 mph 1017.7mb 70f 61f
7:18 7 10 mph 1017.8mb 70f 61f
7:12 8 13 mph 1017.8mb 70f 61f
7:06 8 14 mph 1017.9mb 70f 62f
7:00 10 16 mph 1017.9mb 70f 62f
6:54 11 14 mph 1018mb 70f 62f
6:48 7 14 mph 1018mb 70f -
6:42 10 17 mph 1018.1mb 70f -
6:36 9 13 mph 1018mb 70f -
6:30 7 15 mph - 70f 63f
6:24 7 15 mph - 70f 63f
6:18 10 16 mph 1018.3mb - -
6:12 9 13 mph 1018.2mb 70f 64f
6:06 8 13 mph 1018.2mb 70f 64f
6:00 9 16 mph 1018.1mb 70f 64f
5:54 10 16 mph 1018.1mb 70f 65f
5:48 13 17 mph 1018.2mb 70f 65f
5:42 9 15 mph 1018.1mb 70f 66f
5:36 9 16 mph 1018.2mb 70f 66f
5:30 10 15 mph 1018.2mb 70f 66f
5:24 9 14 mph 1018.1mb 70f 65f
5:18 11 15 mph 1018.2mb 70f 65f
5:12 11 15 mph 1018.2mb 70f 64f
5:06 7 16 mph 1018.2mb 70f 65f
5:00 9 18 mph 1018.3mb 70f 65f
4:54 13 17 mph 1018.3mb 70f 64f
4:48 14 17 mph 1018.5mb 70f 64f
4:42 14 17 mph 1018.5mb 70f 64f
4:36 14 18 mph 1018.6mb 70f 65f
4:30 8 17 mph 1018.8mb 70f 65f
4:24 11 20 mph 1018.8mb 70f 64f
4:18 15 21 mph 1018.9mb 70f 64f
4:12 17 21 mph 1018.9mb 70f 63f
4:06 16 21 mph 1019mb 70f 63f
4:00 16 21 mph 1019.1mb 70f 64f
3:54 15 23 mph 1019.1mb 70f 64f
3:48 16 22 mph 1019.1mb 70f 63f
3:42 17 21 mph 1019.2mb 70f 63f
3:36 17 20 mph 1019.2mb 70f 63f
3:30 14 20 mph 1019.2mb 70f 63f
3:24 15 20 mph 1019.4mb 70f 64f
3:18 15 21 mph 1019.5mb 70f 64f
3:12 16 21 mph 1019.4mb 70f 64f
3:06 14 21 mph 1019.4mb 70f 64f
3:00 15 21 mph 1019.5mb 70f 64f
2:54 16 21 mph 1019.5mb 70f 64f
2:48 16 22 mph 1019.5mb 70f 63f
2:42 16 20 mph 1019.6mb 70f 63f
2:36 17 20 mph 1019.5mb 70f 63f
2:30 13 17 mph 1019.6mb 70f 64f
2:24 14 17 mph 1019.6mb 69f 64f
2:18 13 17 mph 1019.7mb 69f 64f
2:12 11 14 mph 1019.6mb 69f 63f
2:06 11 13 mph 1019.8mb 69f 63f
2:00 9 13 mph 1019.8mb 69f 63f
1:54 9 11 mph 1019.9mb 69f 63f
1:48 9 11 mph 1020mb 69f 62f
1:42 10 14 mph 1020.1mb 69f 62f
1:36 9 13 mph 1020.2mb 69f 63f
1:30 9 13 mph 1020.2mb 69f 62f
1:24 7 10 mph 1020.4mb 69f 62f
1:18 7 10 mph 1020.4mb 68f 62f
1:12 9 11 mph 1020.5mb 68f 62f
1:06 8 11 mph 1020.7mb 68f 62f
1:00 8 9 mph 1020.6mb 68f 61f
12:54 9 10 mph 1020.7mb 68f 61f
12:48 7 10 mph 1020.8mb 68f 61f
12:42 8 10 mph 1020.9mb 68f 61f
12:36 9 11 mph 1021mb 68f 61f
12:30 8 11 mph 1021mb 68f 61f
12:24 9 11 mph 1021mb 68f 60f
12:18 8 11 mph 1021mb 68f 60f
12:12 8 11 mph 1021mb 68f 60f
12:06 7 9 mph 1021.1mb 68f 60f
12:00 9 11 mph 1021.2mb 68f 60f
11:54 8 10 mph 1021.3mb 68f 60f
11:48 7 9 mph 1021.3mb 68f 60f
11:42 5 7 mph 1021.4mb 68f 60f
11:36 5 8 mph 1021.5mb 68f 59f
11:30 7 9 mph 1021.6mb 68f 59f
11:24 7 9 mph 1021.7mb 68f 59f
11:18 6 8 mph 1021.8mb 68f 59f
11:12 5 7 mph 1021.9mb 68f 59f
11:06 6 8 mph 1022.1mb 68f 58f
11:00 6 8 mph 1022.1mb 68f 58f
10:54 6 8 mph 1022.1mb 68f 58f
10:48 5 7 mph 1022.2mb 68f 58f
10:42 5 6 mph 1022.2mb 68f 58f
10:36 3 5 mph 1022.2mb 68f 58f
10:30 3 5 mph 1022.2mb 68f 57f
10:24 2 5 mph - 68f 57f
10:18 3 5 mph - 68f 57f
10:12 3 5 mph - 68f 56f
10:06 3 5 mph - 68f 56f
10:00 3 5 mph - 68f 56f
9:54 3 5 mph - 68f 56f
9:48 2 3 mph - 68f 56f
9:42 2 3 mph - 68f 56f
9:36 2 3 mph - 68f 56f
9:30  -  2 mph - 68f 57f
9:24 1 3 mph - 68f 56f
9:18 1 2 mph - 68f 57f
9:12  -  2 mph - 68f 56f
9:06 1 5 mph - 68f 55f
9:00 2 5 mph - 68f 55f
8:54  -  3 mph - 68f 55f
8:48 1 3 mph - 68f 55f
8:42 1 3 mph - 68f 55f
8:36 1 3 mph - 68f 55f
8:30 2 5 mph - 69f 54f
8:24 1 5 mph - 69f 54f
8:18 3 6 mph - 69f 53f
8:12 2 5 mph - 69f 52f
8:06 3 5 mph - 69f 51f
8:00 3 5 mph - 69f 51f
7:54 3 5 mph - 69f 51f
7:48 3 5 mph - 69f 50f
7:42 3 5 mph - 69f 50f
7:36 5 6 mph - 70f 49f
7:30 2 6 mph - 70f 49f
7:24 5 6 mph - 70f 49f
7:18 5 7 mph - 70f 48f
7:12 5 7 mph - 70f 48f
7:06 5 7 mph - 70f 48f
7:00 5 6 mph - 70f 47f
6:54 5 6 mph - 70f 47f
6:48 3 5 mph - 70f 47f
6:42 3 5 mph - 70f 47f
6:36 5 6 mph - 70f 47f
6:30 5 6 mph - 70f 47f
6:24 5
mph
- 70f 47f
6:18 3 6 mph - 70f 47f
6:12 3 5 mph - 70f 47f
6:06 2 5 mph - 70f 47f
6:00 5 6 mph - 70f 47f
5:54 6
mph
- 70f 47f
5:48 3 6 mph - 70f 47f
5:42 3 5 mph - 70f 48f
5:36 3 6 mph - 70f 47f
5:30 5
mph
- 70f 47f
5:24 2 3 mph - 70f 47f
5:18 2 3 mph - 70f 47f
5:12 2 5 mph - 70f 47f
5:06 5 6 mph - 70f 47f
5:00 3
mph
- 70f 47f
4:54 2 5 mph - 70f 47f
4:48 5 6 mph - 70f 48f
4:42 3 6 mph - 70f 48f
4:36 3 6 mph - 70f 48f
4:30 6 7 mph - 70f 48f
4:24 3 5 mph - 70f 49f
4:18 2 5 mph - 70f 49f
4:12 3 6 mph - 70f 50f
4:06 2 3 mph - 70f 51f
4:00 2 5 mph - 70f 51f
3:54 2 6 mph - 70f 51f
3:48 5 7 mph - 70f 50f
3:42 3 6 mph - 70f 50f
3:36 3 5 mph - 70f 50f
3:30 3 6 mph - 70f 50f
3:24 3 6 mph - 70f 50f
3:18 5 6 mph - 70f 50f
3:12 5 7 mph - 70f 50f
3:06 6 7 mph - 70f 50f
3:00 3 6 mph - 70f 50f
2:54 3 6 mph - 70f 50f
2:48 3 6 mph - 70f 50f
2:42 3 6 mph - - -
2:36 5 7 mph - - -
2:30 6 8 mph - 70f 50f
2:24 5 7 mph - 70f 50f
2:18 3 6 mph - 70f 49f
2:12 5 6 mph - 70f 50f
2:06 6 8 mph - 70f 50f
2:00 5 7 mph - 69f 50f
1:54 3 5 mph - 69f 51f
1:48 5 7 mph - 69f -
1:42 6 7 mph - 69f -
1:36 2 5 mph - 69f -
1:30 2 5 mph - 69f 54f
1:24 3 7 mph - 69f 54f
1:18 2 6 mph - 69f 54f
1:12 5 9 mph - 69f 54f
1:06 7 8 mph - 69f 54f
1:00 6 8 mph - 69f 55f
12:54 5 9 mph - 69f 54f
12:48 7 9 mph - 69f 54f
12:42 3 8 mph - 69f 55f
12:36 3 6 mph - 69f 55f
12:30 2 6 mph - 69f 55f
12:24 3 6 mph - 69f 55f
12:18 5 7 mph - 69f 55f
12:12 3 7 mph - 69f 55f
12:06 5 7 mph - 69f 56f
12:00 5 8 mph - 69f 55f
So 09/25 11:54 3 7 mph - 69f 55f
11:48 5 9 mph - 69f 55f
11:42 3 10 mph - 69f 56f
11:36 3 10 mph - 69f 56f
11:30 6 9 mph - 69f 56f
11:24 3 6 mph - 69f 57f
11:18 3 13 mph - 69f 57f
11:12 8 11 mph - 69f 57f
11:06 7 11 mph - 69f 57f
11:00 7 13 mph - 69f 57f
10:54 9 13 mph - 69f 57f
10:48 8 11 mph - 69f 57f
10:42 8 13 mph - 69f 58f
10:36 9 13 mph - 69f 58f
10:30 8 13 mph - 69f 58f
10:24 8 13 mph - 69f 58f